createdAt,value
2023-03-11T00:02:02.852Z,96805.00
2023-03-11T00:05:00.490Z,96798.80
2023-03-11T00:07:58.233Z,96802.40
2023-03-11T00:10:56.329Z,96815.20
2023-03-11T00:13:54.034Z,96815.20
2023-03-11T00:16:51.494Z,96817.40
2023-03-11T00:19:49.211Z,96818.60
2023-03-11T00:22:46.644Z,96818.00
2023-03-11T00:25:44.353Z,96821.60
2023-03-11T00:28:41.962Z,96825.80
2023-03-11T00:31:39.403Z,96822.00
2023-03-11T00:34:37.080Z,96837.80
2023-03-11T00:37:34.575Z,96859.40
2023-03-11T00:40:32.187Z,96884.60
2023-03-11T00:43:29.637Z,96916.00
2023-03-11T00:46:27.410Z,96934.80
2023-03-11T00:49:25.165Z,96930.80
2023-03-11T00:52:22.611Z,96919.80
2023-03-11T00:55:20.239Z,96919.00
2023-03-11T00:58:17.711Z,96915.80
2023-03-11T01:01:15.529Z,96919.00
2023-03-11T01:04:13.040Z,96934.80
2023-03-11T01:07:11.448Z,96950.60
2023-03-11T01:10:09.007Z,96966.20
2023-03-11T01:13:06.788Z,96958.40
2023-03-11T01:16:04.710Z,96975.60
2023-03-11T01:19:02.185Z,96992.60
2023-03-11T01:21:59.822Z,96989.60
2023-03-11T01:24:57.273Z,96986.20
2023-03-11T01:27:54.992Z,96986.00
2023-03-11T01:30:52.507Z,96977.20
2023-03-11T01:33:50.187Z,96980.40
2023-03-11T01:36:47.649Z,96984.20
2023-03-11T01:39:45.301Z,96986.60
2023-03-11T01:42:43.020Z,96998.40
2023-03-11T01:45:40.497Z,97000.40
2023-03-11T01:48:39.069Z,96991.20
2023-03-11T01:51:36.520Z,96994.60
2023-03-11T01:54:34.185Z,97010.40
2023-03-11T01:57:31.637Z,97039.60
2023-03-11T02:00:29.505Z,97002.40
2023-03-11T02:03:26.989Z,97054.60
2023-03-11T02:06:24.685Z,97049.40
2023-03-11T02:09:24.470Z,97058.00
2023-03-11T02:12:21.926Z,97021.20
2023-03-11T02:15:19.701Z,97018.80
2023-03-11T02:18:18.678Z,97013.20
2023-03-11T02:21:16.454Z,96996.40
2023-03-11T02:24:13.899Z,97000.80
2023-03-11T02:27:11.672Z,96992.80
2023-03-11T02:30:09.293Z,97003.20
2023-03-11T02:33:06.787Z,97026.60
2023-03-11T02:36:04.640Z,97013.60
2023-03-11T02:39:02.106Z,96983.60
2023-03-11T02:41:59.740Z,97020.20
2023-03-11T02:44:57.182Z,97032.60
2023-03-11T02:47:54.881Z,97023.80
2023-03-11T02:50:52.678Z,97043.20
2023-03-11T02:53:50.114Z,97033.20
2023-03-11T02:56:50.784Z,97037.60
2023-03-11T02:59:48.273Z,97036.60
2023-03-11T03:02:46.112Z,97034.00
2023-03-11T03:05:44.177Z,97041.60
2023-03-11T03:08:41.769Z,97040.40
2023-03-11T03:11:39.519Z,97075.40
2023-03-11T03:14:36.969Z,97076.20
2023-03-11T03:17:34.850Z,97072.40
2023-03-11T03:20:32.303Z,97077.20
2023-03-11T03:23:30.073Z,97069.40
2023-03-11T03:26:27.861Z,97080.20
2023-03-11T03:29:25.314Z,97076.20
2023-03-11T03:32:23.202Z,97089.60
2023-03-11T03:35:20.841Z,97092.00
2023-03-11T03:38:18.457Z,97090.20
2023-03-11T03:41:16.368Z,97105.80
2023-03-11T03:44:14.141Z,97098.80
2023-03-11T03:47:12.304Z,97110.80
2023-03-11T03:50:09.776Z,97098.40
2023-03-11T03:53:07.408Z,97110.20
2023-03-11T03:56:04.894Z,97107.20
2023-03-11T03:59:02.660Z,97100.00
2023-03-11T04:02:00.176Z,97110.60
2023-03-11T04:04:57.847Z,97121.60
2023-03-11T04:07:55.759Z,97119.40
2023-03-11T04:10:53.227Z,97123.40
2023-03-11T04:13:50.993Z,97121.60
2023-03-11T04:16:48.601Z,97122.40
2023-03-11T04:19:46.421Z,97115.80
2023-03-11T04:22:44.294Z,97101.40
2023-03-11T04:25:41.851Z,97109.40
2023-03-11T04:28:39.512Z,97104.60
2023-03-11T04:31:36.972Z,97105.80
2023-03-11T04:34:34.749Z,97114.60
2023-03-11T04:37:32.298Z,97107.80
2023-03-11T04:40:30.066Z,97119.80
2023-03-11T04:43:27.935Z,97104.40
2023-03-11T04:46:25.440Z,97115.40
2023-03-11T04:49:24.183Z,97112.00
2023-03-11T04:52:21.647Z,97116.40
2023-03-11T04:55:19.410Z,97134.00
2023-03-11T04:58:17.279Z,97113.20
2023-03-11T05:01:14.862Z,97119.20
2023-03-11T05:04:13.481Z,97137.80
2023-03-11T05:07:10.993Z,97122.60
2023-03-11T05:10:09.272Z,97123.40
2023-03-11T05:13:06.730Z,97119.00
2023-03-11T05:16:04.529Z,97122.20
2023-03-11T05:19:02.471Z,97105.60
2023-03-11T05:21:59.930Z,97113.80
2023-03-11T05:24:57.821Z,97117.80
2023-03-11T05:27:55.265Z,97093.20
2023-03-11T05:30:53.066Z,97101.40
2023-03-11T05:33:50.524Z,97102.60
2023-03-11T05:36:48.458Z,97100.00
2023-03-11T05:39:45.921Z,97101.80
2023-03-11T05:42:43.690Z,97092.80
2023-03-11T05:45:41.674Z,97096.40
2023-03-11T05:48:39.239Z,97101.40
2023-03-11T05:51:38.027Z,97099.00
2023-03-11T05:54:35.589Z,97101.40
2023-03-11T05:57:33.347Z,97090.40
2023-03-11T06:00:30.910Z,97101.00
2023-03-11T06:03:28.780Z,97116.40
2023-03-11T06:06:26.665Z,97114.80
2023-03-11T06:09:24.518Z,97121.80
2023-03-11T06:12:22.291Z,97128.40
2023-03-11T06:15:19.855Z,97136.20
2023-03-11T06:18:17.712Z,97128.00
2023-03-11T06:21:15.280Z,97123.20
2023-03-11T06:24:13.041Z,97127.40
2023-03-11T06:27:11.902Z,97129.20
2023-03-11T06:30:10.327Z,97121.00
2023-03-11T06:33:08.122Z,97125.60
2023-03-11T06:36:05.761Z,97127.40
2023-03-11T06:39:04.753Z,97142.80
2023-03-11T06:42:02.305Z,97139.20
2023-03-11T06:45:00.081Z,97127.00
2023-03-11T06:47:57.848Z,97126.80
2023-03-11T06:50:55.328Z,97135.80
2023-03-11T06:53:53.313Z,97136.60
2023-03-11T06:56:50.874Z,97136.20
2023-03-11T06:59:48.797Z,97137.00
2023-03-11T07:02:46.323Z,97137.80
2023-03-11T07:05:44.243Z,97130.80
2023-03-11T07:08:41.891Z,97138.20
2023-03-11T07:11:39.577Z,97136.80
2023-03-11T07:14:37.402Z,97149.60
2023-03-11T07:17:36.058Z,97136.40
2023-03-11T07:20:34.017Z,97145.20
2023-03-11T07:23:31.664Z,97151.00
2023-03-11T07:26:29.321Z,97151.40
2023-03-11T07:29:27.001Z,97151.60
2023-03-11T07:32:24.596Z,97149.60
2023-03-11T07:35:22.371Z,97159.60
2023-03-11T07:38:19.971Z,97149.00
2023-03-11T07:41:18.405Z,97153.80
2023-03-11T07:44:15.969Z,97158.40
2023-03-11T07:47:14.119Z,97164.40
2023-03-11T07:50:12.457Z,97177.40
2023-03-11T07:53:09.904Z,97167.60
2023-03-11T07:56:07.886Z,97196.40
2023-03-11T07:59:05.462Z,97184.40
2023-03-11T08:02:03.445Z,97195.00
2023-03-11T08:05:01.066Z,97203.20
2023-03-11T08:07:58.842Z,97213.60
2023-03-11T08:10:57.065Z,97221.60
2023-03-11T08:13:54.936Z,97233.20
2023-03-11T08:16:52.857Z,97230.60
2023-03-11T08:19:50.444Z,97261.80
2023-03-11T08:22:57.556Z,97245.40
2023-03-11T08:25:55.479Z,97252.00
2023-03-11T08:28:53.132Z,97277.20
2023-03-11T08:31:51.062Z,97282.40
2023-03-11T08:34:48.627Z,97275.00
2023-03-11T08:37:46.808Z,97288.60
2023-03-11T08:40:44.323Z,97289.20
2023-03-11T08:43:42.750Z,97308.20
2023-03-11T08:46:40.865Z,97311.40
2023-03-11T08:49:38.398Z,97325.40
2023-03-11T08:52:36.168Z,97332.00
2023-03-11T08:55:33.613Z,97332.20
2023-03-11T08:58:31.373Z,97356.60
2023-03-11T09:01:29.693Z,97363.00
2023-03-11T09:04:27.376Z,97365.40
2023-03-11T09:07:25.033Z,97373.00
2023-03-11T09:10:22.488Z,97370.40
2023-03-11T09:13:20.209Z,97381.80
2023-03-11T09:16:17.664Z,97376.80
2023-03-11T09:19:15.433Z,97376.40
2023-03-11T09:22:12.894Z,97399.00
2023-03-11T09:25:11.382Z,97409.60
2023-03-11T09:28:08.824Z,97411.80
2023-03-11T09:31:06.957Z,97404.40
2023-03-11T09:34:04.787Z,97417.80
2023-03-11T09:37:02.332Z,97422.20
2023-03-11T09:40:00.073Z,97434.00
2023-03-11T09:42:57.519Z,97449.20
2023-03-11T09:45:55.242Z,97462.00
2023-03-11T09:48:52.730Z,97472.40
2023-03-11T09:51:50.372Z,97497.40
2023-03-11T09:54:48.143Z,97488.00
2023-03-11T09:57:45.695Z,97492.00
2023-03-11T10:00:43.563Z,97510.00
2023-03-11T10:03:41.124Z,97514.80
2023-03-11T10:06:38.898Z,97513.60
2023-03-11T10:09:38.901Z,97521.80
2023-03-11T10:12:38.119Z,97512.40
2023-03-11T10:15:38.318Z,97529.60
2023-03-11T10:18:36.824Z,97534.00
2023-03-11T10:21:34.691Z,97541.20
2023-03-11T10:24:32.252Z,97552.20
2023-03-11T10:27:30.027Z,97564.60
2023-03-11T10:30:27.490Z,97559.40
2023-03-11T10:33:25.273Z,97561.80
2023-03-11T10:36:24.756Z,97579.00
2023-03-11T10:39:22.213Z,97571.20
2023-03-11T10:42:20.093Z,97577.60
2023-03-11T10:45:17.645Z,97590.40
2023-03-11T10:48:15.625Z,97599.80
2023-03-11T10:51:13.188Z,97602.20
2023-03-11T10:54:11.054Z,97605.40
2023-03-11T10:57:09.229Z,97608.60
2023-03-11T11:00:12.410Z,97610.60
2023-03-11T11:03:10.194Z,97609.60
2023-03-11T11:06:07.658Z,97614.00
2023-03-11T11:09:06.771Z,97629.20
2023-03-11T11:12:04.349Z,97634.00
2023-03-11T11:15:02.181Z,97629.60
2023-03-11T11:17:59.750Z,97628.80
2023-03-11T11:20:57.622Z,97623.00
2023-03-11T11:23:55.384Z,97594.40
2023-03-11T11:26:52.945Z,97618.40
2023-03-11T11:29:50.917Z,97622.60
2023-03-11T11:32:48.539Z,97626.40
2023-03-11T11:35:46.514Z,97621.80
2023-03-11T11:38:44.018Z,97626.40
2023-03-11T11:41:41.786Z,97629.00
2023-03-11T11:44:39.353Z,97634.80
2023-03-11T11:47:37.209Z,97606.80
2023-03-11T11:50:34.872Z,97629.20
2023-03-11T11:53:32.966Z,97604.00
2023-03-11T11:56:30.817Z,97615.20
2023-03-11T11:59:28.250Z,97629.20
2023-03-11T12:02:26.261Z,97628.40
2023-03-11T12:05:24.239Z,97649.60
2023-03-11T12:08:21.887Z,97643.80
2023-03-11T12:11:19.653Z,97652.20
2023-03-11T12:14:18.151Z,97664.40
2023-03-11T12:17:16.211Z,97670.60
2023-03-11T12:20:13.776Z,97662.00
2023-03-11T12:23:11.450Z,97666.80
2023-03-11T12:26:08.997Z,97660.80
2023-03-11T12:29:06.869Z,97671.80
2023-03-11T12:32:04.436Z,97672.40
2023-03-11T12:35:02.146Z,97672.80
2023-03-11T12:37:59.972Z,97689.80
2023-03-11T12:40:57.437Z,97691.20
2023-03-11T12:43:55.197Z,97690.00
2023-03-11T12:46:52.700Z,97699.80
2023-03-11T12:49:50.629Z,97708.40
2023-03-11T12:52:48.056Z,97713.00
2023-03-11T12:55:45.859Z,97717.20
2023-03-11T12:58:43.417Z,97710.60
2023-03-11T13:01:42.015Z,97718.40
2023-03-11T13:04:39.982Z,97708.20
2023-03-11T13:07:37.440Z,97717.60
2023-03-11T13:10:35.310Z,97717.60
2023-03-11T13:13:32.899Z,97727.00
2023-03-11T13:16:30.844Z,97728.60
2023-03-11T13:19:28.392Z,97731.20
2023-03-11T13:22:26.291Z,97744.20
2023-03-11T13:25:23.717Z,97747.40
2023-03-11T13:28:21.717Z,97768.80
2023-03-11T13:31:21.264Z,97763.00
2023-03-11T13:34:18.764Z,97769.60
2023-03-11T13:37:18.058Z,97775.20
2023-03-11T13:40:15.940Z,97784.40
2023-03-11T13:43:13.722Z,97778.80
2023-03-11T13:46:11.858Z,97773.00
2023-03-11T13:49:09.678Z,97786.60
2023-03-11T13:52:07.402Z,97792.40
2023-03-11T13:55:04.844Z,97801.20
2023-03-11T13:58:02.565Z,97801.00
2023-03-11T14:01:00.062Z,97807.80
2023-03-11T14:03:58.247Z,97819.00
2023-03-11T14:06:55.772Z,97830.60
2023-03-11T14:09:53.449Z,97829.00
2023-03-11T14:12:51.229Z,97837.40
2023-03-11T14:15:49.054Z,97837.20
2023-03-11T14:18:46.789Z,97837.40
2023-03-11T14:21:44.254Z,97842.20
2023-03-11T14:24:42.044Z,97853.40
2023-03-11T14:27:40.539Z,97852.80
2023-03-11T14:30:38.392Z,97848.20
2023-03-11T14:33:36.525Z,97840.40
2023-03-11T14:36:35.009Z,97834.60
2023-03-11T14:39:32.858Z,97844.00
2023-03-11T14:42:31.004Z,97853.40
2023-03-11T14:45:28.880Z,97849.00
2023-03-11T14:48:27.680Z,97858.20
2023-03-11T14:51:25.204Z,97872.00
2023-03-11T14:54:23.097Z,97869.80
2023-03-11T14:57:21.175Z,97876.60
2023-03-11T15:00:19.043Z,97879.60
2023-03-11T15:03:17.275Z,97883.80
2023-03-11T15:06:15.084Z,97880.40
2023-03-11T15:09:12.855Z,97886.20
2023-03-11T15:12:11.293Z,97894.40
2023-03-11T15:15:10.126Z,97900.60
2023-03-11T15:18:08.080Z,97912.80
2023-03-11T15:21:06.383Z,97900.80
2023-03-11T15:24:05.438Z,97907.00
2023-03-11T15:27:02.929Z,97908.80
2023-03-11T15:30:00.558Z,97920.60
2023-03-11T15:32:58.317Z,97915.00
2023-03-11T15:35:56.744Z,97933.40
2023-03-11T15:38:54.339Z,97936.20
2023-03-11T15:41:52.308Z,97934.00
2023-03-11T15:44:50.688Z,97926.60
2023-03-11T15:47:49.268Z,97930.80
2023-03-11T15:50:53.368Z,97932.00
2023-03-11T15:53:52.086Z,97940.80
2023-03-11T15:56:49.933Z,97945.80
2023-03-11T15:59:47.530Z,97940.80
2023-03-11T16:02:45.284Z,97952.80
2023-03-11T16:05:43.822Z,97954.80
2023-03-11T16:08:41.545Z,97966.80
2023-03-11T16:11:39.714Z,97966.80
2023-03-11T16:14:37.273Z,97968.20
2023-03-11T16:17:49.030Z,97992.00
2023-03-11T16:20:47.753Z,97984.60
2023-03-11T16:23:51.809Z,97989.80
2023-03-11T16:26:52.993Z,97986.20
2023-03-11T16:29:50.772Z,97984.80
2023-03-11T16:32:50.042Z,97993.80
2023-03-11T16:35:48.720Z,97993.40
2023-03-11T16:38:47.348Z,98007.20
2023-03-11T16:41:46.289Z,98009.60
2023-03-11T16:44:47.287Z,98019.60
2023-03-11T16:47:45.460Z,98026.40
2023-03-11T16:50:45.018Z,98034.00
2023-03-11T16:53:43.659Z,98043.00
2023-03-11T16:56:42.007Z,98051.80
2023-03-11T16:59:40.610Z,98057.00
2023-03-11T17:02:42.708Z,98060.60
2023-03-11T17:05:41.482Z,98066.80
2023-03-11T17:08:40.926Z,98072.20
2023-03-11T17:11:39.480Z,98078.60
2023-03-11T17:14:38.174Z,98076.40
2023-03-11T17:17:37.282Z,98089.80
2023-03-11T17:20:36.957Z,98093.60
2023-03-11T17:23:35.332Z,98102.80
2023-03-11T17:26:34.061Z,98104.20
2023-03-11T17:29:33.808Z,98121.40
2023-03-11T17:32:31.981Z,98120.00
2023-03-11T17:35:30.339Z,98129.80
2023-03-11T17:38:29.937Z,98135.00
2023-03-11T17:41:28.317Z,98141.00
2023-03-11T17:44:31.587Z,98149.80
2023-03-11T17:47:37.240Z,98158.40
2023-03-11T17:50:36.470Z,98160.20
2023-03-11T17:53:37.695Z,98163.80
2023-03-11T17:56:36.822Z,98165.60
2023-03-11T17:59:35.846Z,98171.80
2023-03-11T18:02:34.493Z,98169.60
2023-03-11T18:05:33.028Z,98166.60
2023-03-11T18:08:31.052Z,98175.20
2023-03-11T18:11:28.698Z,98178.00
2023-03-11T18:14:29.371Z,98192.20
2023-03-11T18:17:29.977Z,98193.60
2023-03-11T18:20:29.350Z,98194.00
2023-03-11T18:23:27.602Z,98200.60
2023-03-11T18:26:26.458Z,98203.80
2023-03-11T18:29:25.104Z,98204.80
2023-03-11T18:32:25.269Z,98208.80
2023-03-11T18:35:25.265Z,98206.60
2023-03-11T18:38:23.363Z,98214.20
2023-03-11T18:41:23.153Z,98226.00
2023-03-11T18:44:22.356Z,98229.40
2023-03-11T18:47:21.062Z,98228.60
2023-03-11T18:50:22.932Z,98231.20
2023-03-11T18:53:21.790Z,98233.40
2023-03-11T18:56:20.141Z,98231.40
2023-03-11T18:59:18.743Z,98242.80
2023-03-11T19:02:17.990Z,98246.60
2023-03-11T19:05:17.020Z,98249.40
2023-03-11T19:08:15.874Z,98255.80
2023-03-11T19:11:14.334Z,98259.20
2023-03-11T19:14:18.692Z,98253.80
2023-03-11T19:17:22.400Z,98258.40
2023-03-11T19:20:22.930Z,98265.00
2023-03-11T19:23:24.078Z,98270.00
2023-03-11T19:26:41.379Z,98264.40
2023-03-11T19:29:41.525Z,98275.60
2023-03-11T19:32:39.751Z,98281.60
2023-03-11T19:35:37.704Z,98284.40
2023-03-11T19:38:36.513Z,98289.40
2023-03-11T19:41:34.649Z,98289.80
2023-03-11T19:44:33.134Z,98289.20
2023-03-11T19:47:31.465Z,98297.40
2023-03-11T19:50:30.099Z,98294.20
2023-03-11T19:53:29.597Z,98293.00
2023-03-11T19:56:29.223Z,98302.00
2023-03-11T19:59:28.436Z,98295.00
2023-03-11T20:02:27.066Z,98295.60
2023-03-11T20:05:27.017Z,98302.80
2023-03-11T20:08:25.621Z,98308.20
2023-03-11T20:11:26.546Z,98316.20
2023-03-11T20:14:25.125Z,98311.00
2023-03-11T20:17:24.330Z,98318.40
2023-03-11T20:20:23.378Z,98321.00
2023-03-11T20:23:21.979Z,98318.60
2023-03-11T20:26:20.617Z,98319.40
2023-03-11T20:29:19.537Z,98324.20
2023-03-11T20:32:18.331Z,98324.40
2023-03-11T20:35:17.461Z,98316.80
2023-03-11T20:38:17.637Z,98328.40
2023-03-11T20:41:16.424Z,98326.00
2023-03-11T20:44:15.031Z,98326.80
2023-03-11T20:47:12.974Z,98331.20
2023-03-11T20:50:11.580Z,98335.40
2023-03-11T20:53:10.312Z,98336.40
2023-03-11T20:56:08.816Z,98342.60
2023-03-11T20:59:07.664Z,98342.20
2023-03-11T21:02:06.525Z,98341.60
2023-03-11T21:05:05.210Z,98344.60
2023-03-11T21:08:03.807Z,98344.20
2023-03-11T21:11:01.447Z,98344.20
2023-03-11T21:14:00.407Z,98346.00
2023-03-11T21:16:59.028Z,98360.00
2023-03-11T21:19:58.719Z,98362.60
2023-03-11T21:22:56.976Z,98361.60
2023-03-11T21:25:55.119Z,98362.40
2023-03-11T21:28:53.173Z,98360.60
2023-03-11T21:31:51.388Z,98361.20
2023-03-11T21:34:50.211Z,98362.20
2023-03-11T21:37:48.090Z,98361.40
2023-03-11T21:40:46.623Z,98370.80
2023-03-11T21:43:44.356Z,98375.80
2023-03-11T21:46:42.533Z,98378.40
2023-03-11T21:49:40.393Z,98382.00
2023-03-11T21:52:38.603Z,98383.60
2023-03-11T21:55:36.178Z,98384.20
2023-03-11T21:58:34.022Z,98387.60
2023-03-11T22:01:31.930Z,98395.60
2023-03-11T22:04:29.830Z,98389.40
2023-03-11T22:07:27.602Z,98397.40
2023-03-11T22:10:25.327Z,98393.40
2023-03-11T22:13:23.211Z,98393.40
2023-03-11T22:16:21.102Z,98398.00
2023-03-11T22:19:19.230Z,98403.20
2023-03-11T22:22:16.786Z,98410.40
2023-03-11T22:25:15.048Z,98406.00
2023-03-11T22:28:13.249Z,98405.80
2023-03-11T22:31:10.989Z,98405.00
2023-03-11T22:34:08.464Z,98405.20
2023-03-11T22:37:06.224Z,98413.20
2023-03-11T22:40:07.590Z,98420.80
2023-03-11T22:43:05.339Z,98424.80
2023-03-11T22:46:03.187Z,98428.40
2023-03-11T22:49:00.674Z,98435.80
2023-03-11T22:51:58.455Z,98433.00
2023-03-11T22:54:55.974Z,98439.40
2023-03-11T22:57:53.588Z,98441.60
2023-03-11T23:00:51.076Z,98445.40
2023-03-11T23:03:48.843Z,98450.60
2023-03-11T23:06:46.325Z,98449.40
2023-03-11T23:09:44.260Z,98452.60
2023-03-11T23:12:41.694Z,98451.80
2023-03-11T23:15:39.449Z,98452.20
2023-03-11T23:18:37.216Z,98457.80
2023-03-11T23:21:34.663Z,98456.40
2023-03-11T23:24:32.337Z,98453.20
2023-03-11T23:27:29.783Z,98457.60
2023-03-11T23:30:27.498Z,98458.40
2023-03-11T23:33:24.974Z,98460.00
2023-03-11T23:36:22.658Z,98459.80
2023-03-11T23:39:20.094Z,98465.20
2023-03-11T23:42:25.545Z,98475.00
2023-03-11T23:45:23.881Z,98480.60
2023-03-11T23:48:21.326Z,98475.00
2023-03-11T23:51:19.002Z,98482.00
2023-03-11T23:54:16.567Z,98487.60
2023-03-11T23:57:14.353Z,98490.80
